Latest Coastal Weather Observations for Sydney Harbour

IDN60701

Issued at 1:41 pm EST Monday 25 May 2015 (issued every 10 minutes, with the page automatically refreshed every 10 minutes)

About coastal observations | Map of coastal stations | Coastal observations for NSW | Marine services | Other Formats
Station Details ID: 066196 Name: WEDDING CAKE WEST Lat: -33.84 Lon: 151.26 Height: 6.0 m
Data from the previous 72 hours. | See also: Recent months for locations in New South Wales
Date/Time
EST
Temp

°C
Wind Pressure Rain
since 9am
mm
Weather Cloud Vis
km
Sea
Height
m
Swell
Dir
 
Speed
knots
Gust
knots
hPa Trend Height
m
Period
s
Dir
25/01:30pm 16.8 SW 3 5 - - - - - - - - - -
25/01:00pm 16.3 SW 4 5 - - - - - - - - - -
25/12:30pm 15.8 SW 5 6 - - - - - - - - - -
25/12:00pm 15.7 SW 5 7 - - - - - - - - - -
25/11:30am 15.2 WSW 6 7 - - - - - - - - - -
25/11:00am 14.6 WSW 7 9 - - - - - - - - - -
25/10:30am 14.0 SW 6 8 - - - - - - - - - -
25/10:00am 13.2 SW 7 9 - - - - - - - - - -
25/09:30am 12.9 WSW 6 9 - - - - - - - - - -
25/09:00am 12.1 W 7 9 - - - - - - - - - -
25/08:30am 11.9 WSW 7 10 - - - - - - - - - -
25/08:00am 11.6 WSW 7 9 - - - - - - - - - -
25/07:30am 11.3 WSW 8 10 - - - - - - - - - -
25/07:00am 11.7 W 5 7 - - - - - - - - - -
25/06:30am 11.9 WSW 6 9 - - - - - - - - - -
25/06:00am 12.2 WSW 5 8 - - - - - - - - - -
25/05:30am 11.9 WSW 6 8 - - - - - - - - - -
25/05:00am 12.2 WSW 5 7 - - - - - - - - - -
25/04:30am 12.1 W 7 9 - - - - - - - - - -
25/04:00am 12.3 W 8 11 - - - - - - - - - -
25/03:30am 11.9 W 7 10 - - - - - - - - - -
25/03:00am 11.7 W 11 14 - - - - - - - - - -
25/02:30am 12.1 W 10 11 - - - - - - - - - -
25/02:00am 12.3 W 8 9 - - - - - - - - - -
25/01:30am 12.6 WSW 8 11 - - - - - - - - - -
25/01:00am 12.8 SW 5 8 - - - - - - - - - -
25/12:30am 13.1 W 8 11 - - - - - - - - - -
25/12:00am 12.6 W 10 12 - - - - - - - - - -
 
Date/Time
EST
Temp

°C
Wind Pressure Rain
since 9am
mm
Weather Cloud Vis
km
Sea
Height
m
Swell
Dir
 
Speed
knots
Gust
knots
hPa Trend Height
m
Period
s
Dir
24/11:30pm 13.7 WSW 7 10 - - - - - - - - - -
24/11:00pm 14.5 SSE 2 4 - - - - - - - - - -
24/10:30pm 14.5 CALM 0 0 - - - - - - - - - -
24/10:00pm 14.3 SSE 2 4 - - - - - - - - - -
24/09:30pm 14.8 CALM 0 0 - - - - - - - - - -
24/09:00pm 14.6 CALM 0 0 - - - - - - - - - -
24/08:30pm 14.7 CALM 0 0 - - - - - - - - - -
24/08:00pm 14.9 CALM 0 0 - - - - - - - - - -
24/07:30pm 15.3 CALM 0 0 - - - - - - - - - -
24/07:00pm 15.7 CALM 0 0 - - - - - - - - - -
24/06:30pm 15.8 CALM 0 0 - - - - - - - - - -
24/06:00pm 16.0 CALM 0 0 - - - - - - - - - -
24/05:30pm 16.3 SSE 2 3 - - - - - - - - - -
24/05:00pm 16.7 SSE 4 5 - - - - - - - - - -
24/04:30pm 17.2 SSE 4 5 - - - - - - - - - -
24/04:00pm 17.3 SSE 5 8 - - - - - - - - - -
24/03:30pm 17.4 SSE 5 7 - - - - - - - - - -
24/03:00pm 17.5 S 6 8 - - - - - - - - - -
24/02:30pm 17.3 S 7 9 - - - - - - - - - -
24/02:00pm 17.8 SW 4 7 - - - - - - - - - -
24/01:30pm 17.2 WSW 4 6 - - - - - - - - - -
24/01:00pm 16.6 WSW 7 9 - - - - - - - - - -
24/12:30pm 16.4 W 8 11 - - - - - - - - - -
24/12:00pm 15.6 W 11 13 - - - - - - - - - -
24/11:30am 14.9 W 11 14 - - - - - - - - - -
24/11:00am 14.0 W 11 15 - - - - - - - - - -
24/10:30am 12.9 WSW 12 15 - - - - - - - - - -
24/10:00am 12.1 WSW 14 17 - - - - - - - - - -
24/09:30am 11.3 WSW 11 14 - - - - - - - - - -
24/09:00am 11.0 W 7 10 - - - - - - - - - -
24/08:30am 10.4 W 14 20 - - - - - - - - - -
24/08:00am 10.1 W 16 20 - - - - - - - - - -
24/07:30am 10.3 W 13 17 - - - - - - - - - -
24/07:00am 9.9 W 15 18 - - - - - - - - - -
24/06:30am 10.0 W 14 17 - - - - - - - - - -
24/06:00am 10.2 W 15 19 - - - - - - - - - -
24/05:30am 9.9 W 18 21 - - - - - - - - - -
24/05:00am 10.3 W 16 20 - - - - - - - - - -
24/04:30am 10.4 W 13 16 - - - - - - - - - -
24/04:00am 10.6 W 14 17 - - - - - - - - - -
24/03:30am 10.8 WSW 13 16 - - - - - - - - - -
24/03:00am 11.3 W 13 15 - - - - - - - - - -
24/02:30am 11.5 W 15 17 - - - - - - - - - -
24/02:00am 11.8 W 13 15 - - - - - - - - - -
24/01:30am 12.1 W 11 13 - - - - - - - - - -
24/01:00am 11.8 W 10 13 - - - - - - - - - -
24/12:30am 12.1 W 11 14 - - - - - - - - - -
24/12:00am 12.3 W 10 11 - - - - - - - - - -
 
Date/Time
EST
Temp

°C
Wind Pressure Rain
since 9am
mm
Weather Cloud Vis
km
Sea
Height
m
Swell
Dir
 
Speed
knots
Gust
knots
hPa Trend Height
m
Period
s
Dir
23/11:30pm 12.7 W 10 11 - - - - - - - - - -
23/11:00pm 13.0 W 11 13 - - - - - - - - - -
23/10:30pm 13.6 W 10 12 - - - - - - - - - -
23/10:00pm 14.4 W 9 11 - - - - - - - - - -
23/09:30pm 14.9 WSW 10 12 - - - - - - - - - -
23/09:00pm 15.7 S 8 10 - - - - - - - - - -
23/08:30pm 15.7 S 8 10 - - - - - - - - - -
23/08:00pm 15.7 S 7 9 - - - - - - - - - -
23/07:30pm 15.8 S 9 11 - - - - - - - - - -
23/07:00pm 15.8 S 9 11 - - - - - - - - - -
23/06:30pm 16.1 S 10 13 - - - - - - - - - -
23/06:00pm 16.2 S 10 13 - - - - - - - - - -
23/05:30pm 16.0 S 11 14 - - - - - - - - - -
23/05:00pm 16.1 SSW 13 15 - - - - - - - - - -
23/04:30pm 16.4 SSW 15 19 - - - - - - - - - -
23/04:00pm 16.6 SSW 15 19 - - - - - - - - - -
23/03:30pm 16.7 SSW 17 21 - - - - - - - - - -
23/03:00pm 16.7 SSW 16 22 - - - - - - - - - -
23/02:30pm 16.7 SSW 16 21 - - - - - - - - - -
23/02:00pm 16.8 SSW 17 22 - - - - - - - - - -
23/01:30pm 16.5 SSW 20 24 - - - - - - - - - -
23/01:00pm 16.7 SSW 17 23 - - - - - - - - - -
23/12:30pm 16.5 SSW 19 24 - - - - - - - - - -
23/12:00pm 16.5 SSW 20 23 - - - - - - - - - -
23/11:30am 16.3 SSW 19 24 - - - - - - - - - -
23/11:08am 16.2 SW 15 25 - - - - - - - - - -
23/11:00am 15.9 SW 13 16 - - - - - - - - - -
23/10:30am 15.0 WSW 11 15 - - - - - - - - - -
23/10:00am 13.9 W 13 17 - - - - - - - - - -
23/09:30am 13.1 WSW 13 17 - - - - - - - - - -
23/09:00am 12.8 W 14 19 - - - - - - - - - -
23/08:30am 12.6 W 15 20 - - - - - - - - - -
23/08:00am 12.8 WSW 14 18 - - - - - - - - - -
23/07:30am 12.5 W 14 18 - - - - - - - - - -
23/07:00am 12.3 W 13 18 - - - - - - - - - -
23/06:30am 12.2 W 16 20 - - - - - - - - - -
23/06:00am 11.9 W 13 17 - - - - - - - - - -
23/05:30am 12.2 W 13 20 - - - - - - - - - -
23/05:00am 12.8 WSW 12 16 - - - - - - - - - -
23/04:30am 12.5 W 13 17 - - - - - - - - - -
23/04:00am 12.4 WSW 12 17 - - - - - - - - - -
23/03:30am 12.5 W 11 14 - - - - - - - - - -
23/03:00am 12.6 WSW 18 22 - - - - - - - - - -
23/02:30am 12.5 SW 12 17 - - - - - - - - - -
23/02:00am 12.7 WSW 13 17 - - - - - - - - - -
23/01:30am 13.6 WSW 16 19 - - - - - - - - - -
23/01:00am 13.2 W 15 19 - - - - - - - - - -
23/12:30am 12.9 WSW 13 21 - - - - - - - - - -
23/12:00am 13.0 W 13 17 - - - - - - - - - -
 
Date/Time
EST
Temp

°C
Wind Pressure Rain
since 9am
mm
Weather Cloud Vis
km
Sea
Height
m
Swell
Dir
 
Speed
knots
Gust
knots
hPa Trend Height
m
Period
s
Dir
22/11:30pm 13.2 W 13 17 - - - - - - - - - -
22/11:00pm 13.6 W 17 21 - - - - - - - - - -
22/10:30pm 14.2 WSW 13 17 - - - - - - - - - -
22/10:03pm 15.6 SSW 17 34 - - - - - - - - - -
22/10:00pm 15.8 SW 15 20 - - - - - - - - - -
22/09:30pm 13.8 WSW 11 16 - - - - - - - - - -
22/09:00pm 13.9 WSW 11 16 - - - - - - - - - -
22/08:39pm 16.4 S 17 22 - - - - - - - - - -
22/08:30pm 16.1 SSE 20 29 - - - - - - - - - -
22/08:16pm 16.5 SW 16 28 - - - - - - - - - -
22/08:03pm 15.1 SSW 20 26 - - - - - - - - - -
22/08:00pm 16.9 S 21 26 - - - - - - - - - -
22/07:45pm 16.4 S 21 31 - - - - - - - - - -
22/07:30pm 16.9 S 20 26 - - - - - - - - - -
22/07:00pm 14.9 SSW 22 29 - - - - - - - - - -
22/06:48pm 16.2 SSW 20 30 - - - - - - - - - -
22/06:30pm 14.6 SSW 23 30 - - - - - - - - - -
22/06:04pm 15.5 SSW 25 35 - - - - - - - - - -
22/06:00pm 17.0 SSW 24 31 - - - - - - - - - -
22/05:30pm 16.9 SSW 22 30 - - - - - - - - - -
22/05:00pm 17.5 S 23 33 - - - - - - - - - -
22/04:51pm 17.5 S 22 32 - - - - - - - - - -
22/04:30pm 17.4 SSW 29 38 - - - - - - - - - -
22/04:01pm 17.0 S 23 37 - - - - - - - - - -
22/04:00pm 17.0 S 22 30 - - - - - - - - - -
22/03:34pm 16.9 S 29 39 - - - - - - - - - -
22/03:30pm 16.9 S 28 37 - - - - - - - - - -
22/03:03pm 17.6 S 29 39 - - - - - - - - - -
22/03:00pm 17.4 S 29 37 - - - - - - - - - -
22/02:39pm 17.3 S 29 41 - - - - - - - - - -
22/02:30pm 17.5 S 29 38 - - - - - - - - - -
22/02:02pm 17.3 S 32 42 - - - - - - - - - -
22/02:00pm 17.3 S 31 40 - - - - - - - - - -

Other Formats:

Comma delimited format used in spreadsheet applications
http://www.bom.gov.au/fwo/IDN60701/IDN60701.95766.axf

JavaScript Object Notation format (JSON) in row-major order
http://www.bom.gov.au/fwo/IDN60701/IDN60701.95766.json